createdAt,value
2022-09-26T00:02:38.978Z,15.98
2022-09-26T00:07:40.365Z,15.96
2022-09-26T00:12:41.642Z,15.94
2022-09-26T00:17:42.919Z,15.89
2022-09-26T00:22:44.298Z,15.82
2022-09-26T00:27:45.594Z,15.78
2022-09-26T00:32:46.937Z,15.76
2022-09-26T00:37:48.264Z,15.77
2022-09-26T00:42:49.541Z,15.77
2022-09-26T00:47:58.014Z,15.73
2022-09-26T00:53:02.310Z,15.67
2022-09-26T00:58:16.784Z,15.61
2022-09-26T01:03:18.851Z,15.58
2022-09-26T01:08:21.821Z,15.56
2022-09-26T01:13:23.146Z,15.56
2022-09-26T01:18:24.915Z,15.52
2022-09-26T01:23:45.164Z,15.46
2022-09-26T01:29:01.871Z,15.38
2022-09-26T01:34:26.481Z,15.27
2022-09-26T01:39:46.589Z,15.05
2022-09-26T01:44:53.801Z,14.86
2022-09-26T01:50:02.634Z,14.73
2022-09-26T01:55:13.151Z,14.64
2022-09-26T02:00:14.748Z,14.60
2022-09-26T02:05:20.366Z,14.54
2022-09-26T02:10:24.722Z,14.52
2022-09-26T02:15:27.193Z,14.48
2022-09-26T02:20:34.833Z,14.41
2022-09-26T02:25:39.996Z,14.30
2022-09-26T02:30:43.705Z,14.14
2022-09-26T02:35:54.319Z,13.94
2022-09-26T02:41:00.144Z,13.80
2022-09-26T02:46:24.425Z,13.69
2022-09-26T02:51:44.795Z,13.63
2022-09-26T02:57:04.958Z,13.58
2022-09-26T03:02:09.229Z,13.58
2022-09-26T03:07:14.633Z,13.59
2022-09-26T03:12:16.749Z,13.63
2022-09-26T03:17:18.884Z,13.70
2022-09-26T03:22:20.579Z,13.77
2022-09-26T03:27:22.041Z,13.85
2022-09-26T03:32:24.245Z,13.96
2022-09-26T03:37:25.619Z,14.07
2022-09-26T03:42:27.387Z,14.14
2022-09-26T03:47:30.041Z,14.21
2022-09-26T03:52:31.843Z,14.27
2022-09-26T03:57:33.176Z,14.32
2022-09-26T04:02:47.034Z,14.34
2022-09-26T04:08:02.942Z,14.36
2022-09-26T04:13:05.465Z,14.42
2022-09-26T04:18:06.812Z,14.47
2022-09-26T04:23:08.698Z,14.52
2022-09-26T04:28:10.201Z,14.56
2022-09-26T04:33:12.321Z,14.57
2022-09-26T04:38:19.810Z,14.58
2022-09-26T04:43:21.139Z,14.57
2022-09-26T04:48:22.485Z,14.57
2022-09-26T04:53:30.840Z,14.57
2022-09-26T04:58:38.905Z,14.53
2022-09-26T05:03:41.860Z,14.52
2022-09-26T05:08:46.269Z,14.53
2022-09-26T05:13:53.552Z,14.54
2022-09-26T05:18:56.412Z,14.56
2022-09-26T05:24:18.986Z,14.59
2022-09-26T05:29:21.731Z,14.62
2022-09-26T05:34:31.031Z,14.68
2022-09-26T05:39:51.239Z,14.69
2022-09-26T05:44:53.858Z,14.71
2022-09-26T05:49:55.496Z,14.73
2022-09-26T05:54:59.077Z,14.74
2022-09-26T06:00:19.179Z,14.78
2022-09-26T06:05:20.436Z,14.84
2022-09-26T06:10:46.381Z,14.87
2022-09-26T06:15:49.820Z,14.90
2022-09-26T06:20:51.247Z,14.93
2022-09-26T06:25:52.645Z,14.96
2022-09-26T06:30:54.516Z,15.00
2022-09-26T06:36:15.795Z,15.06
2022-09-26T06:41:18.146Z,15.11
2022-09-26T06:46:20.403Z,15.14
2022-09-26T06:51:24.538Z,15.19
2022-09-26T06:56:25.940Z,15.21
2022-09-26T07:01:27.416Z,15.22
2022-09-26T07:06:37.962Z,15.27
2022-09-26T07:12:13.037Z,15.34
2022-09-26T07:17:16.120Z,15.40
2022-09-26T07:22:20.644Z,15.43
2022-09-26T07:27:26.566Z,15.47
2022-09-26T07:32:29.537Z,15.54
2022-09-26T07:37:50.862Z,15.61
2022-09-26T07:43:15.230Z,15.63
2022-09-26T07:48:33.070Z,15.65
2022-09-26T07:53:53.200Z,15.80
2022-09-26T07:59:13.030Z,16.00
2022-09-26T08:05:00.789Z,16.25
2022-09-26T08:10:07.281Z,16.35
2022-09-26T08:15:31.255Z,16.25
2022-09-26T08:20:40.600Z,16.14
2022-09-26T08:25:42.333Z,16.12
2022-09-26T08:31:08.125Z,16.11
2022-09-26T08:36:11.270Z,16.17
2022-09-26T08:41:32.308Z,16.24
2022-09-26T08:46:56.744Z,16.23
2022-09-26T08:52:19.840Z,16.33
2022-09-26T08:57:33.962Z,16.40
2022-09-26T09:02:40.072Z,16.53
2022-09-26T09:07:52.307Z,16.63
2022-09-26T09:13:00.939Z,16.67
2022-09-26T09:18:24.302Z,16.82
2022-09-26T09:23:37.193Z,16.97
2022-09-26T09:28:56.665Z,16.92
2022-09-26T09:34:01.968Z,17.00
2022-09-26T09:39:35.600Z,16.97
2022-09-26T09:44:47.651Z,16.95
2022-09-26T09:49:49.734Z,17.00
2022-09-26T09:55:15.836Z,17.11
2022-09-26T10:00:18.362Z,17.26
2022-09-26T10:05:43.015Z,17.39
2022-09-26T10:10:55.603Z,17.53
2022-09-26T10:16:15.593Z,17.64
2022-09-26T10:21:39.753Z,17.87
2022-09-26T10:26:41.373Z,18.15
2022-09-26T10:31:45.235Z,18.29
2022-09-26T10:36:51.775Z,18.34
2022-09-26T10:41:57.688Z,18.35
2022-09-26T10:47:00.185Z,18.29
2022-09-26T10:53:09.048Z,18.37
2022-09-26T10:58:17.751Z,18.39
2022-09-26T11:03:21.542Z,18.46
2022-09-26T11:08:49.502Z,18.62
2022-09-26T11:14:27.382Z,18.75
2022-09-26T11:19:44.478Z,18.87
2022-09-26T11:25:02.036Z,18.89
2022-09-26T11:30:20.552Z,18.79
2022-09-26T11:35:33.081Z,18.89
2022-09-26T11:41:00.626Z,19.08
2022-09-26T11:46:21.440Z,19.33
2022-09-26T11:51:57.818Z,19.55
2022-09-26T11:57:08.409Z,19.69
2022-09-26T12:02:31.866Z,19.73
2022-09-26T12:07:36.843Z,19.52
2022-09-26T12:12:47.168Z,19.46
2022-09-26T12:18:07.269Z,19.45
2022-09-26T12:23:14.639Z,19.41
2022-09-26T12:28:38.865Z,19.34
2022-09-26T12:33:40.135Z,19.17
2022-09-26T12:39:00.065Z,19.16
2022-09-26T12:44:01.383Z,19.35
2022-09-26T12:49:06.616Z,19.52
2022-09-26T12:54:07.971Z,19.76
2022-09-26T12:59:29.110Z,19.84
2022-09-26T13:04:50.725Z,19.91
2022-09-26T13:10:09.871Z,20.06
2022-09-26T13:15:23.296Z,20.32
2022-09-26T13:20:27.682Z,20.20
2022-09-26T13:25:38.393Z,20.00
2022-09-26T13:30:44.470Z,19.88
2022-09-26T13:35:47.782Z,19.81
2022-09-26T13:41:17.964Z,19.78
2022-09-26T13:46:28.636Z,19.75
2022-09-26T13:51:39.350Z,19.78
2022-09-26T13:56:44.072Z,19.77
2022-09-26T14:02:05.610Z,19.73
2022-09-26T14:07:28.688Z,19.73
2022-09-26T14:12:48.622Z,19.74
2022-09-26T14:17:49.887Z,19.75
2022-09-26T14:22:54.333Z,19.73
2022-09-26T14:28:08.316Z,19.72
2022-09-26T14:33:12.256Z,19.64
2022-09-26T14:38:20.269Z,19.56
2022-09-26T14:43:23.213Z,19.55
2022-09-26T14:48:29.099Z,19.51
2022-09-26T14:53:33.966Z,19.47
2022-09-26T14:58:38.058Z,19.42
2022-09-26T15:03:39.951Z,19.38
2022-09-26T15:08:41.262Z,19.34
2022-09-26T15:13:44.293Z,19.32
2022-09-26T15:18:52.518Z,19.30
2022-09-26T15:23:55.618Z,19.29
2022-09-26T15:29:01.735Z,19.28
2022-09-26T15:34:16.267Z,19.28
2022-09-26T15:39:29.987Z,19.26
2022-09-26T15:44:35.424Z,19.29
2022-09-26T15:49:39.915Z,19.32
2022-09-26T15:54:41.558Z,19.29
2022-09-26T15:59:44.766Z,19.20
2022-09-26T16:04:49.428Z,19.15
2022-09-26T16:09:51.411Z,19.11
2022-09-26T16:15:02.637Z,19.08
2022-09-26T16:20:21.774Z,18.96
2022-09-26T16:25:25.424Z,18.76
2022-09-26T16:30:33.455Z,18.57
2022-09-26T16:35:36.284Z,18.36
2022-09-26T16:40:37.785Z,18.21
2022-09-26T16:45:48.467Z,18.08
2022-09-26T16:51:09.797Z,17.93
2022-09-26T16:56:12.675Z,17.79
2022-09-26T17:01:32.804Z,17.67
2022-09-26T17:06:37.143Z,17.57
2022-09-26T17:11:38.450Z,17.47
2022-09-26T17:16:39.732Z,17.34
2022-09-26T17:21:41.068Z,17.20
2022-09-26T17:26:49.462Z,17.10
2022-09-26T17:31:51.578Z,16.99
2022-09-26T17:36:54.074Z,16.89
2022-09-26T17:42:02.631Z,16.79
2022-09-26T17:47:05.166Z,16.69
2022-09-26T17:52:24.481Z,16.61
2022-09-26T17:57:27.746Z,16.55
2022-09-26T18:02:32.542Z,16.49
2022-09-26T18:07:39.486Z,16.45
2022-09-26T18:12:42.061Z,16.40
2022-09-26T18:17:43.469Z,16.33
2022-09-26T18:22:46.751Z,16.26
2022-09-26T18:27:50.476Z,16.22
2022-09-26T18:32:53.950Z,16.15
2022-09-26T18:37:55.822Z,16.08
2022-09-26T18:42:58.047Z,16.01
2022-09-26T18:47:59.576Z,15.92
2022-09-26T18:53:00.925Z,15.85
2022-09-26T18:58:20.707Z,15.80
2022-09-26T19:03:23.044Z,15.76
2022-09-26T19:08:32.820Z,15.76
2022-09-26T19:13:34.248Z,15.76
2022-09-26T19:18:36.032Z,15.72
2022-09-26T19:23:37.376Z,15.68
2022-09-26T19:28:38.748Z,15.63
2022-09-26T19:33:43.887Z,15.60
2022-09-26T19:38:45.557Z,15.55
2022-09-26T19:43:46.857Z,15.53
2022-09-26T19:48:48.166Z,15.52
2022-09-26T19:53:49.490Z,15.51
2022-09-26T19:58:52.650Z,15.51
2022-09-26T20:03:54.187Z,15.51
2022-09-26T20:09:01.679Z,15.50
2022-09-26T20:14:22.342Z,15.48
2022-09-26T20:19:28.564Z,15.48
2022-09-26T20:24:31.597Z,15.48
2022-09-26T20:29:55.123Z,15.50
2022-09-26T20:35:00.281Z,15.49
2022-09-26T20:40:04.677Z,15.47
2022-09-26T20:45:06.481Z,15.44
2022-09-26T20:50:13.748Z,15.43
2022-09-26T20:55:19.166Z,15.42
2022-09-26T21:00:21.167Z,15.38
2022-09-26T21:05:25.009Z,15.36
2022-09-26T21:10:28.780Z,15.39
2022-09-26T21:15:31.999Z,15.41
2022-09-26T21:20:34.424Z,15.43
2022-09-26T21:25:58.716Z,15.47
2022-09-26T21:31:03.036Z,15.46
2022-09-26T21:36:04.648Z,15.46
2022-09-26T21:41:07.634Z,15.47
2022-09-26T21:46:09.051Z,15.48
2022-09-26T21:51:12.788Z,15.50
2022-09-26T21:56:19.505Z,15.52
2022-09-26T22:01:20.930Z,15.52
2022-09-26T22:06:22.488Z,15.49
2022-09-26T22:11:23.890Z,15.45
2022-09-26T22:16:25.512Z,15.46
2022-09-26T22:21:26.895Z,15.45
2022-09-26T22:26:28.188Z,15.48
2022-09-26T22:31:29.543Z,15.49
2022-09-26T22:36:31.650Z,15.52
2022-09-26T22:41:32.981Z,15.51
2022-09-26T22:46:34.330Z,15.54
2022-09-26T22:51:35.756Z,15.58
2022-09-26T22:56:37.031Z,15.61
2022-09-26T23:01:38.471Z,15.64
2022-09-26T23:06:39.846Z,15.68
2022-09-26T23:11:41.284Z,15.70
2022-09-26T23:16:42.626Z,15.72
2022-09-26T23:21:44.964Z,15.76
2022-09-26T23:26:46.538Z,15.77
2022-09-26T23:31:47.889Z,15.79
2022-09-26T23:36:49.179Z,15.80
2022-09-26T23:41:50.577Z,15.80
2022-09-26T23:46:51.880Z,15.80
2022-09-26T23:51:53.205Z,15.81
2022-09-26T23:56:54.544Z,15.81
